sensor_id;sensor_type;location;lat;lon;timestamp;P1;durP1;ratioP1;P2;durP2;ratioP2
40707;SDS011;26392;42.696;23.350;2022-07-06T00:02:21;14.55;;;9.70;;
40707;SDS011;26392;42.696;23.350;2022-07-06T00:04:46;16.38;;;10.15;;
40707;SDS011;26392;42.696;23.350;2022-07-06T00:07:12;15.18;;;9.98;;
40707;SDS011;26392;42.696;23.350;2022-07-06T00:09:39;14.30;;;10.02;;
40707;SDS011;26392;42.696;23.350;2022-07-06T00:12:05;19.15;;;11.57;;
40707;SDS011;26392;42.696;23.350;2022-07-06T00:14:31;16.33;;;10.18;;
40707;SDS011;26392;42.696;23.350;2022-07-06T00:16:56;18.98;;;10.30;;
40707;SDS011;26392;42.696;23.350;2022-07-06T00:19:22;17.85;;;10.90;;
40707;SDS011;26392;42.696;23.350;2022-07-06T00:21:47;18.42;;;11.05;;
40707;SDS011;26392;42.696;23.350;2022-07-06T00:24:12;22.13;;;11.45;;
40707;SDS011;26392;42.696;23.350;2022-07-06T00:26:38;19.02;;;11.02;;
40707;SDS011;26392;42.696;23.350;2022-07-06T00:29:04;18.05;;;11.23;;
40707;SDS011;26392;42.696;23.350;2022-07-06T00:31:29;22.65;;;12.07;;
40707;SDS011;26392;42.696;23.350;2022-07-06T00:33:55;20.92;;;11.70;;
40707;SDS011;26392;42.696;23.350;2022-07-06T00:36:20;19.30;;;11.02;;
40707;SDS011;26392;42.696;23.350;2022-07-06T00:38:45;20.45;;;12.73;;
40707;SDS011;26392;42.696;23.350;2022-07-06T00:41:12;22.50;;;11.50;;
40707;SDS011;26392;42.696;23.350;2022-07-06T00:48:38;19.45;;;11.85;;
40707;SDS011;26392;42.696;23.350;2022-07-06T00:51:04;19.45;;;11.55;;
40707;SDS011;26392;42.696;23.350;2022-07-06T00:53:29;20.92;;;11.68;;
40707;SDS011;26392;42.696;23.350;2022-07-06T00:55:55;20.45;;;12.18;;
40707;SDS011;26392;42.696;23.350;2022-07-06T00:58:21;18.98;;;11.65;;
40707;SDS011;26392;42.696;23.350;2022-07-06T01:00:46;18.13;;;10.63;;
40707;SDS011;26392;42.696;23.350;2022-07-06T01:03:12;16.58;;;10.15;;
40707;SDS011;26392;42.696;23.350;2022-07-06T01:05:37;20.77;;;10.32;;
40707;SDS011;26392;42.696;23.350;2022-07-06T01:08:02;18.63;;;10.57;;
40707;SDS011;26392;42.696;23.350;2022-07-06T01:10:28;19.40;;;10.02;;
40707;SDS011;26392;42.696;23.350;2022-07-06T01:12:53;19.23;;;10.38;;
40707;SDS011;26392;42.696;23.350;2022-07-06T01:15:22;18.45;;;11.82;;
40707;SDS011;26392;42.696;23.350;2022-07-06T01:17:50;17.52;;;10.55;;
40707;SDS011;26392;42.696;23.350;2022-07-06T01:20:19;19.30;;;11.68;;
40707;SDS011;26392;42.696;23.350;2022-07-06T01:22:49;17.00;;;10.43;;
40707;SDS011;26392;42.696;23.350;2022-07-06T01:25:16;22.45;;;10.77;;
40707;SDS011;26392;42.696;23.350;2022-07-06T01:27:43;15.43;;;9.95;;
40707;SDS011;26392;42.696;23.350;2022-07-06T01:30:09;20.30;;;12.27;;
40707;SDS011;26392;42.696;23.350;2022-07-06T01:32:41;19.95;;;11.55;;
40707;SDS011;26392;42.696;23.350;2022-07-06T01:35:08;21.80;;;13.00;;
40707;SDS011;26392;42.696;23.350;2022-07-06T01:37:35;20.42;;;12.70;;
40707;SDS011;26392;42.696;23.350;2022-07-06T01:40:02;25.15;;;15.35;;
40707;SDS011;26392;42.696;23.350;2022-07-06T01:42:29;26.77;;;16.45;;
40707;SDS011;26392;42.696;23.350;2022-07-06T01:44:55;26.40;;;14.93;;
40707;SDS011;26392;42.696;23.350;2022-07-06T01:47:20;22.98;;;13.75;;
40707;SDS011;26392;42.696;23.350;2022-07-06T01:49:46;25.17;;;14.32;;
40707;SDS011;26392;42.696;23.350;2022-07-06T01:52:12;19.63;;;12.35;;
40707;SDS011;26392;42.696;23.350;2022-07-06T01:54:37;20.55;;;12.15;;
40707;SDS011;26392;42.696;23.350;2022-07-06T01:57:03;21.90;;;12.30;;
40707;SDS011;26392;42.696;23.350;2022-07-06T01:59:28;18.40;;;11.38;;
40707;SDS011;26392;42.696;23.350;2022-07-06T02:01:54;27.15;;;12.25;;
40707;SDS011;26392;42.696;23.350;2022-07-06T02:04:19;18.38;;;11.57;;
40707;SDS011;26392;42.696;23.350;2022-07-06T02:06:45;16.02;;;10.00;;
40707;SDS011;26392;42.696;23.350;2022-07-06T02:09:10;16.35;;;9.80;;
40707;SDS011;26392;42.696;23.350;2022-07-06T02:11:36;15.48;;;9.88;;
40707;SDS011;26392;42.696;23.350;2022-07-06T02:14:01;17.95;;;9.73;;
40707;SDS011;26392;42.696;23.350;2022-07-06T02:16:27;15.13;;;9.10;;
40707;SDS011;26392;42.696;23.350;2022-07-06T02:18:52;15.70;;;9.60;;
40707;SDS011;26392;42.696;23.350;2022-07-06T02:21:17;15.65;;;8.73;;
40707;SDS011;26392;42.696;23.350;2022-07-06T02:23:43;16.52;;;9.93;;
40707;SDS011;26392;42.696;23.350;2022-07-06T02:26:08;15.98;;;9.77;;
40707;SDS011;26392;42.696;23.350;2022-07-06T02:28:34;14.93;;;8.82;;
40707;SDS011;26392;42.696;23.350;2022-07-06T02:30:59;16.67;;;9.07;;
40707;SDS011;26392;42.696;23.350;2022-07-06T02:33:25;15.00;;;9.00;;
40707;SDS011;26392;42.696;23.350;2022-07-06T02:35:50;19.23;;;9.38;;
40707;SDS011;26392;42.696;23.350;2022-07-06T02:38:16;17.48;;;9.82;;
40707;SDS011;26392;42.696;23.350;2022-07-06T02:40:41;14.10;;;8.93;;
40707;SDS011;26392;42.696;23.350;2022-07-06T02:43:07;18.13;;;9.40;;
40707;SDS011;26392;42.696;23.350;2022-07-06T02:45:33;13.90;;;8.88;;
40707;SDS011;26392;42.696;23.350;2022-07-06T02:47:58;14.48;;;9.20;;
40707;SDS011;26392;42.696;23.350;2022-07-06T02:50:24;14.80;;;8.85;;
40707;SDS011;26392;42.696;23.350;2022-07-06T02:52:50;15.02;;;8.35;;
40707;SDS011;26392;42.696;23.350;2022-07-06T02:55:15;15.88;;;8.75;;
40707;SDS011;26392;42.696;23.350;2022-07-06T02:57:41;13.05;;;8.98;;
40707;SDS011;26392;42.696;23.350;2022-07-06T03:00:07;16.00;;;9.57;;
40707;SDS011;26392;42.696;23.350;2022-07-06T03:02:34;13.43;;;8.90;;
40707;SDS011;26392;42.696;23.350;2022-07-06T03:05:00;14.68;;;8.73;;
40707;SDS011;26392;42.696;23.350;2022-07-06T03:07:26;18.35;;;9.85;;
40707;SDS011;26392;42.696;23.350;2022-07-06T03:09:51;17.23;;;9.68;;
40707;SDS011;26392;42.696;23.350;2022-07-06T03:12:17;14.23;;;8.93;;
40707;SDS011;26392;42.696;23.350;2022-07-06T03:14:42;17.05;;;10.10;;
40707;SDS011;26392;42.696;23.350;2022-07-06T03:17:08;15.75;;;8.93;;
40707;SDS011;26392;42.696;23.350;2022-07-06T03:19:33;18.05;;;9.80;;
40707;SDS011;26392;42.696;23.350;2022-07-06T03:21:59;18.65;;;10.75;;
40707;SDS011;26392;42.696;23.350;2022-07-06T03:24:24;15.60;;;9.85;;
40707;SDS011;26392;42.696;23.350;2022-07-06T03:26:50;17.30;;;10.18;;
40707;SDS011;26392;42.696;23.350;2022-07-06T03:29:15;14.32;;;8.98;;
40707;SDS011;26392;42.696;23.350;2022-07-06T03:31:40;17.13;;;9.93;;
40707;SDS011;26392;42.696;23.350;2022-07-06T03:34:06;17.67;;;10.20;;
40707;SDS011;26392;42.696;23.350;2022-07-06T03:36:31;15.32;;;10.05;;
40707;SDS011;26392;42.696;23.350;2022-07-06T03:38:57;14.63;;;9.60;;
40707;SDS011;26392;42.696;23.350;2022-07-06T03:41:22;17.02;;;10.40;;
40707;SDS011;26392;42.696;23.350;2022-07-06T03:43:48;14.20;;;9.95;;
40707;SDS011;26392;42.696;23.350;2022-07-06T03:46:13;17.92;;;10.23;;
40707;SDS011;26392;42.696;23.350;2022-07-06T03:48:39;19.88;;;11.05;;
40707;SDS011;26392;42.696;23.350;2022-07-06T03:51:04;16.70;;;10.80;;
40707;SDS011;26392;42.696;23.350;2022-07-06T03:53:31;16.27;;;9.55;;
40707;SDS011;26392;42.696;23.350;2022-07-06T03:55:56;15.32;;;8.65;;
40707;SDS011;26392;42.696;23.350;2022-07-06T03:58:41;13.23;;;8.67;;
40707;SDS011;26392;42.696;23.350;2022-07-06T04:01:07;15.93;;;8.95;;
40707;SDS011;26392;42.696;23.350;2022-07-06T04:03:32;14.18;;;8.15;;
40707;SDS011;26392;42.696;23.350;2022-07-06T04:05:58;14.65;;;8.13;;
40707;SDS011;26392;42.696;23.350;2022-07-06T04:08:23;14.35;;;7.65;;
40707;SDS011;26392;42.696;23.350;2022-07-06T04:10:49;12.25;;;6.90;;
40707;SDS011;26392;42.696;23.350;2022-07-06T04:13:14;9.40;;;6.00;;
40707;SDS011;26392;42.696;23.350;2022-07-06T04:15:39;9.85;;;5.13;;
40707;SDS011;26392;42.696;23.350;2022-07-06T04:18:05;6.95;;;5.40;;
40707;SDS011;26392;42.696;23.350;2022-07-06T04:20:30;8.98;;;5.53;;
40707;SDS011;26392;42.696;23.350;2022-07-06T04:22:56;10.77;;;5.80;;
40707;SDS011;26392;42.696;23.350;2022-07-06T04:25:21;8.32;;;5.47;;
40707;SDS011;26392;42.696;23.350;2022-07-06T04:27:47;5.88;;;4.68;;
40707;SDS011;26392;42.696;23.350;2022-07-06T04:30:12;7.47;;;4.38;;
40707;SDS011;26392;42.696;23.350;2022-07-06T04:32:38;5.65;;;4.15;;
40707;SDS011;26392;42.696;23.350;2022-07-06T04:35:04;8.48;;;5.07;;
40707;SDS011;26392;42.696;23.350;2022-07-06T04:37:30;6.18;;;4.60;;
40707;SDS011;26392;42.696;23.350;2022-07-06T04:39:56;9.45;;;5.55;;
40707;SDS011;26392;42.696;23.350;2022-07-06T04:42:21;7.10;;;4.65;;
40707;SDS011;26392;42.696;23.350;2022-07-06T04:44:47;8.73;;;4.82;;
40707;SDS011;26392;42.696;23.350;2022-07-06T04:47:12;8.75;;;5.60;;
40707;SDS011;26392;42.696;23.350;2022-07-06T04:49:38;11.10;;;4.82;;
40707;SDS011;26392;42.696;23.350;2022-07-06T04:52:04;8.23;;;5.53;;
40707;SDS011;26392;42.696;23.350;2022-07-06T04:54:30;15.55;;;6.40;;
40707;SDS011;26392;42.696;23.350;2022-07-06T04:56:55;10.50;;;6.50;;
40707;SDS011;26392;42.696;23.350;2022-07-06T04:59:21;8.68;;;6.45;;
40707;SDS011;26392;42.696;23.350;2022-07-06T05:01:46;9.85;;;6.43;;
40707;SDS011;26392;42.696;23.350;2022-07-06T05:04:12;11.15;;;6.72;;
40707;SDS011;26392;42.696;23.350;2022-07-06T05:06:38;13.73;;;6.50;;
40707;SDS011;26392;42.696;23.350;2022-07-06T05:09:04;13.02;;;7.65;;
40707;SDS011;26392;42.696;23.350;2022-07-06T05:11:30;17.35;;;7.45;;
40707;SDS011;26392;42.696;23.350;2022-07-06T05:13:55;15.27;;;7.57;;
40707;SDS011;26392;42.696;23.350;2022-07-06T05:16:21;19.15;;;8.43;;
40707;SDS011;26392;42.696;23.350;2022-07-06T05:18:46;11.07;;;7.70;;
40707;SDS011;26392;42.696;23.350;2022-07-06T05:21:12;15.80;;;8.75;;
40707;SDS011;26392;42.696;23.350;2022-07-06T05:23:37;14.25;;;8.13;;
40707;SDS011;26392;42.696;23.350;2022-07-06T05:26:03;20.65;;;8.55;;
40707;SDS011;26392;42.696;23.350;2022-07-06T05:28:29;18.67;;;9.40;;
40707;SDS011;26392;42.696;23.350;2022-07-06T05:30:54;16.08;;;9.27;;
40707;SDS011;26392;42.696;23.350;2022-07-06T05:33:19;14.88;;;8.63;;
40707;SDS011;26392;42.696;23.350;2022-07-06T05:35:45;14.90;;;8.80;;
40707;SDS011;26392;42.696;23.350;2022-07-06T05:38:11;11.80;;;7.70;;
40707;SDS011;26392;42.696;23.350;2022-07-06T05:40:36;14.45;;;8.68;;
40707;SDS011;26392;42.696;23.350;2022-07-06T05:43:02;12.52;;;8.45;;
40707;SDS011;26392;42.696;23.350;2022-07-06T05:45:27;17.50;;;8.05;;
40707;SDS011;26392;42.696;23.350;2022-07-06T05:47:53;15.07;;;7.68;;
40707;SDS011;26392;42.696;23.350;2022-07-06T05:50:37;13.20;;;7.68;;
40707;SDS011;26392;42.696;23.350;2022-07-06T05:53:03;17.95;;;8.65;;
40707;SDS011;26392;42.696;23.350;2022-07-06T05:55:30;15.05;;;7.93;;
40707;SDS011;26392;42.696;23.350;2022-07-06T05:57:56;13.52;;;8.25;;
40707;SDS011;26392;42.696;23.350;2022-07-06T06:00:22;11.63;;;7.45;;
40707;SDS011;26392;42.696;23.350;2022-07-06T06:02:49;13.43;;;8.52;;
40707;SDS011;26392;42.696;23.350;2022-07-06T06:05:15;12.93;;;8.50;;
40707;SDS011;26392;42.696;23.350;2022-07-06T06:07:42;15.18;;;7.53;;
40707;SDS011;26392;42.696;23.350;2022-07-06T06:10:08;11.02;;;7.38;;
40707;SDS011;26392;42.696;23.350;2022-07-06T06:12:36;11.13;;;7.60;;
40707;SDS011;26392;42.696;23.350;2022-07-06T06:15:02;11.63;;;8.30;;
40707;SDS011;26392;42.696;23.350;2022-07-06T06:17:28;11.93;;;8.57;;
40707;SDS011;26392;42.696;23.350;2022-07-06T06:19:53;12.60;;;8.00;;
40707;SDS011;26392;42.696;23.350;2022-07-06T06:22:18;13.02;;;8.32;;
40707;SDS011;26392;42.696;23.350;2022-07-06T06:24:44;13.07;;;8.18;;
40707;SDS011;26392;42.696;23.350;2022-07-06T06:27:09;12.98;;;8.45;;
40707;SDS011;26392;42.696;23.350;2022-07-06T06:29:35;15.23;;;7.63;;
40707;SDS011;26392;42.696;23.350;2022-07-06T06:32:00;13.88;;;8.05;;
40707;SDS011;26392;42.696;23.350;2022-07-06T06:34:26;17.92;;;8.32;;
40707;SDS011;26392;42.696;23.350;2022-07-06T06:36:51;19.67;;;8.25;;
40707;SDS011;26392;42.696;23.350;2022-07-06T06:39:17;11.63;;;8.15;;
40707;SDS011;26392;42.696;23.350;2022-07-06T06:41:42;16.73;;;8.88;;
40707;SDS011;26392;42.696;23.350;2022-07-06T06:44:08;14.85;;;8.00;;
40707;SDS011;26392;42.696;23.350;2022-07-06T06:46:33;16.73;;;8.20;;
40707;SDS011;26392;42.696;23.350;2022-07-06T06:48:58;11.07;;;7.60;;
40707;SDS011;26392;42.696;23.350;2022-07-06T06:51:24;13.10;;;8.02;;
40707;SDS011;26392;42.696;23.350;2022-07-06T06:53:50;13.13;;;7.40;;
40707;SDS011;26392;42.696;23.350;2022-07-06T06:56:15;11.40;;;7.20;;
40707;SDS011;26392;42.696;23.350;2022-07-06T06:58:41;12.00;;;7.95;;
40707;SDS011;26392;42.696;23.350;2022-07-06T07:01:07;14.68;;;8.45;;
40707;SDS011;26392;42.696;23.350;2022-07-06T07:03:32;14.30;;;8.48;;
40707;SDS011;26392;42.696;23.350;2022-07-06T07:05:58;11.63;;;8.57;;
40707;SDS011;26392;42.696;23.350;2022-07-06T07:08:23;12.90;;;7.57;;
40707;SDS011;26392;42.696;23.350;2022-07-06T07:10:49;12.48;;;7.65;;
40707;SDS011;26392;42.696;23.350;2022-07-06T07:13:14;11.27;;;7.80;;
40707;SDS011;26392;42.696;23.350;2022-07-06T07:15:40;10.73;;;7.28;;
40707;SDS011;26392;42.696;23.350;2022-07-06T07:18:05;11.48;;;8.05;;
40707;SDS011;26392;42.696;23.350;2022-07-06T07:20:31;11.88;;;7.80;;
40707;SDS011;26392;42.696;23.350;2022-07-06T07:22:58;15.35;;;8.43;;
40707;SDS011;26392;42.696;23.350;2022-07-06T07:25:24;13.82;;;8.52;;
40707;SDS011;26392;42.696;23.350;2022-07-06T07:27:49;14.23;;;9.15;;
40707;SDS011;26392;42.696;23.350;2022-07-06T07:30:15;16.05;;;8.02;;
40707;SDS011;26392;42.696;23.350;2022-07-06T07:32:40;16.50;;;9.57;;
40707;SDS011;26392;42.696;23.350;2022-07-06T07:35:06;14.05;;;9.02;;
40707;SDS011;26392;42.696;23.350;2022-07-06T07:37:32;16.88;;;9.30;;
40707;SDS011;26392;42.696;23.350;2022-07-06T07:39:58;14.02;;;8.63;;
40707;SDS011;26392;42.696;23.350;2022-07-06T07:42:23;15.07;;;8.75;;
40707;SDS011;26392;42.696;23.350;2022-07-06T07:44:49;13.75;;;8.90;;
40707;SDS011;26392;42.696;23.350;2022-07-06T07:47:14;14.55;;;8.45;;
40707;SDS011;26392;42.696;23.350;2022-07-06T07:49:40;11.40;;;7.95;;
40707;SDS011;26392;42.696;23.350;2022-07-06T07:52:06;12.82;;;8.52;;
40707;SDS011;26392;42.696;23.350;2022-07-06T07:54:31;15.13;;;9.20;;
40707;SDS011;26392;42.696;23.350;2022-07-06T07:56:57;10.00;;;7.68;;
40707;SDS011;26392;42.696;23.350;2022-07-06T07:59:22;13.95;;;8.30;;
40707;SDS011;26392;42.696;23.350;2022-07-06T08:01:48;12.50;;;8.10;;
40707;SDS011;26392;42.696;23.350;2022-07-06T08:04:13;10.88;;;7.88;;
40707;SDS011;26392;42.696;23.350;2022-07-06T08:06:39;15.18;;;9.07;;
40707;SDS011;26392;42.696;23.350;2022-07-06T08:09:04;13.85;;;8.50;;
40707;SDS011;26392;42.696;23.350;2022-07-06T08:11:32;13.52;;;8.40;;
40707;SDS011;26392;42.696;23.350;2022-07-06T08:13:58;14.68;;;9.23;;
40707;SDS011;26392;42.696;23.350;2022-07-06T08:16:24;13.52;;;7.78;;
40707;SDS011;26392;42.696;23.350;2022-07-06T08:18:49;14.15;;;8.50;;
40707;SDS011;26392;42.696;23.350;2022-07-06T08:21:15;16.48;;;8.45;;
40707;SDS011;26392;42.696;23.350;2022-07-06T08:23:40;11.90;;;8.27;;
40707;SDS011;26392;42.696;23.350;2022-07-06T08:26:06;17.13;;;8.80;;
40707;SDS011;26392;42.696;23.350;2022-07-06T08:28:31;11.65;;;7.90;;
40707;SDS011;26392;42.696;23.350;2022-07-06T08:30:57;15.02;;;8.25;;
40707;SDS011;26392;42.696;23.350;2022-07-06T08:33:22;14.02;;;8.60;;
40707;SDS011;26392;42.696;23.350;2022-07-06T08:35:48;12.07;;;8.23;;
40707;SDS011;26392;42.696;23.350;2022-07-06T08:38:13;13.07;;;8.45;;
40707;SDS011;26392;42.696;23.350;2022-07-06T08:40:40;12.88;;;8.63;;
40707;SDS011;26392;42.696;23.350;2022-07-06T08:43:08;10.48;;;7.70;;
40707;SDS011;26392;42.696;23.350;2022-07-06T08:45:34;13.27;;;7.45;;
40707;SDS011;26392;42.696;23.350;2022-07-06T08:48:04;13.95;;;8.05;;
40707;SDS011;26392;42.696;23.350;2022-07-06T08:50:30;11.95;;;7.95;;
40707;SDS011;26392;42.696;23.350;2022-07-06T08:52:57;14.00;;;8.88;;
40707;SDS011;26392;42.696;23.350;2022-07-06T08:55:24;13.02;;;7.80;;
40707;SDS011;26392;42.696;23.350;2022-07-06T08:57:50;12.05;;;7.57;;
40707;SDS011;26392;42.696;23.350;2022-07-06T09:00:16;14.95;;;9.10;;
40707;SDS011;26392;42.696;23.350;2022-07-06T09:02:42;10.77;;;7.20;;
40707;SDS011;26392;42.696;23.350;2022-07-06T09:05:08;14.73;;;8.23;;
40707;SDS011;26392;42.696;23.350;2022-07-06T09:07:39;12.18;;;8.30;;
40707;SDS011;26392;42.696;23.350;2022-07-06T09:10:06;14.95;;;7.68;;
40707;SDS011;26392;42.696;23.350;2022-07-06T09:12:34;9.85;;;6.75;;
40707;SDS011;26392;42.696;23.350;2022-07-06T09:14:59;14.40;;;8.75;;
40707;SDS011;26392;42.696;23.350;2022-07-06T09:17:25;13.68;;;9.13;;
40707;SDS011;26392;42.696;23.350;2022-07-06T09:19:53;19.40;;;8.48;;
40707;SDS011;26392;42.696;23.350;2022-07-06T09:22:30;14.18;;;9.52;;
40707;SDS011;26392;42.696;23.350;2022-07-06T09:27:28;12.43;;;8.43;;
40707;SDS011;26392;42.696;23.350;2022-07-06T09:29:53;13.48;;;8.77;;
40707;SDS011;26392;42.696;23.350;2022-07-06T09:32:22;15.68;;;8.98;;
40707;SDS011;26392;42.696;23.350;2022-07-06T09:34:47;15.85;;;8.70;;
40707;SDS011;26392;42.696;23.350;2022-07-06T09:37:13;13.15;;;9.27;;
40707;SDS011;26392;42.696;23.350;2022-07-06T09:39:39;14.07;;;8.25;;
40707;SDS011;26392;42.696;23.350;2022-07-06T09:42:06;17.67;;;8.25;;
40707;SDS011;26392;42.696;23.350;2022-07-06T09:44:36;10.57;;;8.05;;
40707;SDS011;26392;42.696;23.350;2022-07-06T09:47:07;13.23;;;8.35;;
40707;SDS011;26392;42.696;23.350;2022-07-06T09:49:34;16.33;;;9.02;;
40707;SDS011;26392;42.696;23.350;2022-07-06T09:52:05;13.52;;;8.90;;
40707;SDS011;26392;42.696;23.350;2022-07-06T09:54:35;15.57;;;9.70;;
40707;SDS011;26392;42.696;23.350;2022-07-06T09:57:02;14.75;;;10.70;;
40707;SDS011;26392;42.696;23.350;2022-07-06T09:59:30;16.60;;;10.23;;
40707;SDS011;26392;42.696;23.350;2022-07-06T10:01:57;15.38;;;10.05;;
40707;SDS011;26392;42.696;23.350;2022-07-06T10:04:25;14.18;;;9.40;;
40707;SDS011;26392;42.696;23.350;2022-07-06T10:06:52;15.25;;;10.02;;
40707;SDS011;26392;42.696;23.350;2022-07-06T10:09:20;16.20;;;9.88;;
40707;SDS011;26392;42.696;23.350;2022-07-06T10:11:49;15.60;;;10.10;;
40707;SDS011;26392;42.696;23.350;2022-07-06T10:14:23;15.88;;;9.27;;
40707;SDS011;26392;42.696;23.350;2022-07-06T10:16:51;13.57;;;8.90;;
40707;SDS011;26392;42.696;23.350;2022-07-06T10:19:18;14.77;;;9.15;;
40707;SDS011;26392;42.696;23.350;2022-07-06T10:21:45;15.18;;;10.48;;
40707;SDS011;26392;42.696;23.350;2022-07-06T10:24:12;15.35;;;10.00;;
40707;SDS011;26392;42.696;23.350;2022-07-06T10:26:38;16.40;;;11.55;;
40707;SDS011;26392;42.696;23.350;2022-07-06T10:29:05;15.60;;;9.70;;
40707;SDS011;26392;42.696;23.350;2022-07-06T10:31:31;16.88;;;10.85;;
40707;SDS011;26392;42.696;23.350;2022-07-06T10:34:01;13.80;;;9.57;;
40707;SDS011;26392;42.696;23.350;2022-07-06T10:36:30;13.85;;;9.63;;
40707;SDS011;26392;42.696;23.350;2022-07-06T10:38:56;15.70;;;10.10;;
40707;SDS011;26392;42.696;23.350;2022-07-06T10:41:32;15.45;;;10.35;;
40707;SDS011;26392;42.696;23.350;2022-07-06T10:44:16;15.35;;;8.52;;
40707;SDS011;26392;42.696;23.350;2022-07-06T10:46:49;13.20;;;8.98;;
40707;SDS011;26392;42.696;23.350;2022-07-06T10:49:17;15.90;;;8.45;;
40707;SDS011;26392;42.696;23.350;2022-07-06T10:51:43;13.77;;;9.23;;
40707;SDS011;26392;42.696;23.350;2022-07-06T10:54:08;12.98;;;9.43;;
40707;SDS011;26392;42.696;23.350;2022-07-06T10:56:42;17.50;;;10.18;;
40707;SDS011;26392;42.696;23.350;2022-07-06T10:59:13;19.40;;;9.93;;
40707;SDS011;26392;42.696;23.350;2022-07-06T11:04:48;15.23;;;10.32;;
40707;SDS011;26392;42.696;23.350;2022-07-06T11:07:17;14.35;;;9.23;;
40707;SDS011;26392;42.696;23.350;2022-07-06T11:09:53;15.75;;;10.10;;
40707;SDS011;26392;42.696;23.350;2022-07-06T11:12:21;15.70;;;11.30;;
40707;SDS011;26392;42.696;23.350;2022-07-06T11:14:47;13.15;;;9.95;;
40707;SDS011;26392;42.696;23.350;2022-07-06T11:17:14;12.85;;;9.55;;
40707;SDS011;26392;42.696;23.350;2022-07-06T11:19:50;14.40;;;10.88;;
40707;SDS011;26392;42.696;23.350;2022-07-06T11:22:35;12.90;;;8.73;;
40707;SDS011;26392;42.696;23.350;2022-07-06T11:25:01;16.17;;;11.07;;
40707;SDS011;26392;42.696;23.350;2022-07-06T11:27:27;19.67;;;11.35;;
40707;SDS011;26392;42.696;23.350;2022-07-06T11:29:53;15.77;;;10.18;;
40707;SDS011;26392;42.696;23.350;2022-07-06T11:32:23;16.30;;;10.95;;
40707;SDS011;26392;42.696;23.350;2022-07-06T11:34:49;21.25;;;11.27;;
40707;SDS011;26392;42.696;23.350;2022-07-06T11:37:15;20.45;;;10.85;;
40707;SDS011;26392;42.696;23.350;2022-07-06T11:39:43;12.93;;;9.13;;
40707;SDS011;26392;42.696;23.350;2022-07-06T11:42:10;14.60;;;10.57;;
40707;SDS011;26392;42.696;23.350;2022-07-06T11:44:37;15.05;;;9.68;;
40707;SDS011;26392;42.696;23.350;2022-07-06T11:47:03;15.18;;;9.63;;
40707;SDS011;26392;42.696;23.350;2022-07-06T11:49:49;13.05;;;10.43;;
40707;SDS011;26392;42.696;23.350;2022-07-06T11:52:15;15.85;;;10.88;;
40707;SDS011;26392;42.696;23.350;2022-07-06T11:54:41;15.38;;;9.57;;
40707;SDS011;26392;42.696;23.350;2022-07-06T11:57:08;16.35;;;10.60;;
40707;SDS011;26392;42.696;23.350;2022-07-06T11:59:36;14.98;;;11.13;;
40707;SDS011;26392;42.696;23.350;2022-07-06T12:02:04;15.73;;;11.25;;
40707;SDS011;26392;42.696;23.350;2022-07-06T12:04:30;13.10;;;9.50;;
40707;SDS011;26392;42.696;23.350;2022-07-06T12:07:04;11.48;;;9.27;;
40707;SDS011;26392;42.696;23.350;2022-07-06T12:09:32;15.18;;;11.15;;
40707;SDS011;26392;42.696;23.350;2022-07-06T12:11:59;10.95;;;8.65;;
40707;SDS011;26392;42.696;23.350;2022-07-06T12:14:33;13.52;;;9.50;;
40707;SDS011;26392;42.696;23.350;2022-07-06T12:17:06;15.30;;;10.10;;
40707;SDS011;26392;42.696;23.350;2022-07-06T12:19:33;12.45;;;9.50;;
40707;SDS011;26392;42.696;23.350;2022-07-06T12:22:00;9.77;;;7.82;;
40707;SDS011;26392;42.696;23.350;2022-07-06T12:24:29;12.05;;;9.07;;
40707;SDS011;26392;42.696;23.350;2022-07-06T12:26:57;14.70;;;9.02;;
40707;SDS011;26392;42.696;23.350;2022-07-06T12:29:23;14.93;;;9.63;;
40707;SDS011;26392;42.696;23.350;2022-07-06T12:31:50;12.77;;;9.65;;
40707;SDS011;26392;42.696;23.350;2022-07-06T12:34:18;11.23;;;8.43;;
40707;SDS011;26392;42.696;23.350;2022-07-06T12:36:49;10.20;;;9.00;;
40707;SDS011;26392;42.696;23.350;2022-07-06T12:41:56;11.13;;;8.45;;
40707;SDS011;26392;42.696;23.350;2022-07-06T12:44:26;12.07;;;8.10;;
40707;SDS011;26392;42.696;23.350;2022-07-06T12:47:02;8.75;;;7.38;;
40707;SDS011;26392;42.696;23.350;2022-07-06T12:49:32;10.27;;;7.60;;
40707;SDS011;26392;42.696;23.350;2022-07-06T12:59:26;14.07;;;9.23;;
40707;SDS011;26392;42.696;23.350;2022-07-06T13:01:52;10.25;;;7.07;;
40707;SDS011;26392;42.696;23.350;2022-07-06T13:04:25;11.52;;;7.22;;
40707;SDS011;26392;42.696;23.350;2022-07-06T13:06:51;8.55;;;7.32;;
40707;SDS011;26392;42.696;23.350;2022-07-06T13:09:17;11.20;;;6.75;;
40707;SDS011;26392;42.696;23.350;2022-07-06T13:11:44;10.43;;;7.30;;
40707;SDS011;26392;42.696;23.350;2022-07-06T13:14:11;11.63;;;6.80;;
40707;SDS011;26392;42.696;23.350;2022-07-06T13:16:36;6.65;;;5.80;;
40707;SDS011;26392;42.696;23.350;2022-07-06T13:19:02;7.95;;;6.10;;
40707;SDS011;26392;42.696;23.350;2022-07-06T13:21:27;9.27;;;6.50;;
40707;SDS011;26392;42.696;23.350;2022-07-06T13:23:53;9.00;;;6.10;;
40707;SDS011;26392;42.696;23.350;2022-07-06T13:26:18;5.90;;;5.22;;
40707;SDS011;26392;42.696;23.350;2022-07-06T13:28:44;8.88;;;5.60;;
40707;SDS011;26392;42.696;23.350;2022-07-06T13:31:10;5.72;;;4.65;;
40707;SDS011;26392;42.696;23.350;2022-07-06T13:33:36;6.22;;;5.00;;
40707;SDS011;26392;42.696;23.350;2022-07-06T13:36:01;6.80;;;4.40;;
40707;SDS011;26392;42.696;23.350;2022-07-06T13:38:27;6.40;;;4.20;;
40707;SDS011;26392;42.696;23.350;2022-07-06T13:40:53;4.43;;;3.40;;
40707;SDS011;26392;42.696;23.350;2022-07-06T13:43:18;4.40;;;3.50;;
40707;SDS011;26392;42.696;23.350;2022-07-06T13:45:45;4.53;;;3.25;;
40707;SDS011;26392;42.696;23.350;2022-07-06T13:48:12;2.78;;;2.53;;
40707;SDS011;26392;42.696;23.350;2022-07-06T13:50:37;7.13;;;3.00;;
40707;SDS011;26392;42.696;23.350;2022-07-06T13:53:03;7.05;;;3.03;;
40707;SDS011;26392;42.696;23.350;2022-07-06T13:55:30;3.53;;;3.08;;
40707;SDS011;26392;42.696;23.350;2022-07-06T13:57:56;4.45;;;3.50;;
40707;SDS011;26392;42.696;23.350;2022-07-06T14:00:21;3.83;;;3.10;;
40707;SDS011;26392;42.696;23.350;2022-07-06T14:02:47;4.47;;;3.03;;
40707;SDS011;26392;42.696;23.350;2022-07-06T14:05:13;4.25;;;2.78;;
40707;SDS011;26392;42.696;23.350;2022-07-06T14:07:38;6.28;;;2.90;;
40707;SDS011;26392;42.696;23.350;2022-07-06T14:10:04;6.78;;;2.83;;
40707;SDS011;26392;42.696;23.350;2022-07-06T14:12:30;3.53;;;3.03;;
40707;SDS011;26392;42.696;23.350;2022-07-06T14:14:55;3.78;;;3.40;;
40707;SDS011;26392;42.696;23.350;2022-07-06T14:17:20;3.58;;;2.83;;
40707;SDS011;26392;42.696;23.350;2022-07-06T14:19:47;5.85;;;2.83;;
40707;SDS011;26392;42.696;23.350;2022-07-06T14:22:15;4.03;;;2.50;;
40707;SDS011;26392;42.696;23.350;2022-07-06T14:24:42;3.30;;;3.00;;
40707;SDS011;26392;42.696;23.350;2022-07-06T14:27:07;2.50;;;2.35;;
40707;SDS011;26392;42.696;23.350;2022-07-06T14:29:33;3.15;;;2.53;;
40707;SDS011;26392;42.696;23.350;2022-07-06T14:31:58;4.97;;;3.00;;
40707;SDS011;26392;42.696;23.350;2022-07-06T14:34:24;2.92;;;2.60;;
40707;SDS011;26392;42.696;23.350;2022-07-06T14:36:50;26.15;;;3.25;;
40707;SDS011;26392;42.696;23.350;2022-07-06T14:39:16;3.95;;;2.80;;